createdAt,value
2022-09-01T00:00:05.804Z,27.42
2022-09-01T00:06:47.813Z,27.38
2022-09-01T00:13:24.706Z,27.43
2022-09-01T00:20:00.728Z,27.62
2022-09-01T00:26:25.698Z,27.37
2022-09-01T00:32:53.627Z,27.27
2022-09-01T00:39:29.930Z,27.26
2022-09-01T00:46:20.402Z,27.3
2022-09-01T00:53:08.016Z,27.27
2022-09-01T00:59:42.717Z,27.22
2022-09-01T01:06:17.296Z,27.25
2022-09-01T01:12:52.772Z,27.21
2022-09-01T01:19:21.736Z,27.17
2022-09-01T01:26:11.008Z,27.15
2022-09-01T01:32:54.986Z,27.14
2022-09-01T01:39:30.515Z,27.14
2022-09-01T01:46:04.801Z,27.15
2022-09-01T01:52:35.750Z,27.17
2022-09-01T01:59:15.664Z,27.21
2022-09-01T02:06:08.439Z,27.16
2022-09-01T02:12:45.252Z,27.15
2022-09-01T02:19:23.880Z,27.14
2022-09-01T02:26:19.474Z,27.13
2022-09-01T02:32:56.717Z,27.16
2022-09-01T02:39:24.283Z,27.11
2022-09-01T02:46:07.748Z,27.13
2022-09-01T02:52:40.265Z,27.1
2022-09-01T02:59:08.666Z,27.11
2022-09-01T03:05:44.679Z,27.14
2022-09-01T03:12:42.751Z,27.07
2022-09-01T03:19:19.795Z,27.09
2022-09-01T03:26:04.712Z,27.05
2022-09-01T03:32:49.757Z,27.09
2022-09-01T03:39:36.392Z,27.06
2022-09-01T03:46:29.615Z,27
2022-09-01T03:53:32.376Z,27.06
2022-09-01T04:00:20.281Z,27.08
2022-09-01T04:07:09.019Z,27.05
2022-09-01T04:14:17.823Z,27.06
2022-09-01T04:21:06.774Z,26.99
2022-09-01T04:27:39.810Z,26.95
2022-09-01T04:34:05.348Z,26.99
2022-09-01T04:40:42.672Z,26.93
2022-09-01T04:47:18.226Z,26.95
2022-09-01T04:53:45.047Z,26.93
2022-09-01T05:00:13.990Z,26.91
2022-09-01T05:06:56.158Z,26.89
2022-09-01T05:13:27.291Z,26.88
2022-09-01T05:20:14.047Z,26.86
2022-09-01T05:26:57.197Z,26.89
2022-09-01T05:33:26.294Z,26.9
2022-09-01T05:39:58.325Z,26.9
2022-09-01T05:46:34.864Z,26.92
2022-09-01T05:53:02.651Z,26.92
2022-09-01T05:59:39.857Z,26.91
2022-09-01T06:06:11.231Z,26.86
2022-09-01T06:12:38.839Z,26.89
2022-09-01T06:19:05.914Z,26.87
2022-09-01T06:25:36.924Z,26.91
2022-09-01T06:32:03.842Z,26.93
2022-09-01T06:38:32.826Z,26.91
2022-09-01T06:45:00.401Z,26.89
2022-09-01T06:51:33.007Z,26.91
2022-09-01T06:58:05.923Z,26.89
2022-09-01T07:04:35.932Z,26.99
2022-09-01T07:12:08.423Z,27
2022-09-01T07:17:48.935Z,26.99
2022-09-01T07:24:21.891Z,27.04
2022-09-01T07:31:48.768Z,27.02
2022-09-01T07:44:44.087Z,27.02
2022-09-01T07:51:36.681Z,26.97
2022-09-01T07:58:02.384Z,26.94
2022-09-01T08:04:40.901Z,26.92
2022-09-01T08:11:10.006Z,26.91
2022-09-01T08:17:52.263Z,26.95
2022-09-01T08:24:24.165Z,26.91
2022-09-01T08:30:54.041Z,26.91
2022-09-01T08:37:25.915Z,26.93
2022-09-01T08:44:22.224Z,26.9
2022-09-01T08:51:19.932Z,26.9
2022-09-01T08:58:24.987Z,26.94
2022-09-01T09:05:26.847Z,26.92
2022-09-01T09:12:21.678Z,26.9
2022-09-01T09:19:39.845Z,27.01
2022-09-01T09:26:47.814Z,26.95
2022-09-01T09:33:47.513Z,26.99
2022-09-01T09:41:10.343Z,26.96
2022-09-01T09:47:44.967Z,26.99
2022-09-01T09:54:49.919Z,26.99
2022-09-01T10:01:49.296Z,27.02
2022-09-01T10:08:40.078Z,27.01
2022-09-01T10:15:34.186Z,27
2022-09-01T10:22:29.417Z,27.14
2022-09-01T10:29:34.700Z,27.11
2022-09-01T10:36:24.348Z,27.04
2022-09-01T10:43:17.983Z,27.16
2022-09-01T10:50:13.304Z,27.12
2022-09-01T10:57:27.003Z,27.21
2022-09-01T11:04:22.421Z,27.18
2022-09-01T11:11:13.953Z,27.05
2022-09-01T11:18:28.197Z,27.09
2022-09-01T11:25:40.445Z,27.19
2022-09-01T11:32:44.934Z,27.21
2022-09-01T11:39:35.231Z,27.14
2022-09-01T11:46:21.334Z,27.15
2022-09-01T11:53:05.323Z,27.18
2022-09-01T12:00:04.532Z,27.2
2022-09-01T12:06:56.207Z,27.17
2022-09-01T12:13:48.633Z,27.19
2022-09-01T12:27:32.063Z,27.24
2022-09-01T12:34:08.486Z,27.24
2022-09-01T12:41:10.047Z,27.27
2022-09-01T12:48:06.281Z,27.26
2022-09-01T12:55:02.853Z,27.34
2022-09-01T13:02:08.569Z,27.37
2022-09-01T13:08:58.871Z,27.42
2022-09-01T13:15:28.164Z,27.33
2022-09-01T13:21:54.569Z,27.39
2022-09-01T13:28:20.543Z,27.47
2022-09-01T13:34:55.208Z,27.56
2022-09-01T13:41:33.082Z,27.54
2022-09-01T13:48:20.568Z,27.66
2022-09-01T13:54:44.575Z,27.62
2022-09-01T14:01:24.641Z,27.55
2022-09-01T14:07:57.008Z,27.61
2022-09-01T14:21:30.966Z,27.71
2022-09-01T14:28:14.228Z,27.69
2022-09-01T14:35:00.458Z,27.64
2022-09-01T14:41:33.063Z,27.58
2022-09-01T14:48:01.180Z,27.57
2022-09-01T14:54:34.585Z,27.46
2022-09-01T15:01:07.477Z,27.46
2022-09-01T15:07:49.228Z,27.41
2022-09-01T15:14:18.201Z,27.37
2022-09-01T15:20:44.626Z,27.59
2022-09-01T15:27:14.120Z,27.78
2022-09-01T15:33:38.365Z,27.65
2022-09-01T15:40:07.997Z,27.56
2022-09-01T15:46:40.444Z,27.7
2022-09-01T15:53:09.117Z,27.77
2022-09-01T15:59:57.061Z,27.72
2022-09-01T16:06:21.760Z,27.76
2022-09-01T16:12:51.236Z,27.78
2022-09-01T16:19:33.084Z,27.86
2022-09-01T16:26:35.147Z,27.82
2022-09-01T16:33:29.305Z,27.86
2022-09-01T16:40:27.283Z,27.92
2022-09-01T16:47:29.847Z,27.9
2022-09-01T16:54:44.427Z,28.08
2022-09-01T17:02:02.175Z,28.01
2022-09-01T17:09:21.819Z,28.21
2022-09-01T17:16:47.265Z,28.07
2022-09-01T17:23:58.984Z,27.94
2022-09-01T17:31:50.560Z,27.9
2022-09-01T17:38:45.358Z,27.82
2022-09-01T17:45:57.207Z,27.78
2022-09-01T17:53:10.449Z,27.74
2022-09-01T18:00:20.385Z,27.7
2022-09-01T18:07:32.400Z,27.65
2022-09-01T18:14:24.451Z,27.64
2022-09-01T18:21:28.705Z,27.61
2022-09-01T18:28:30.498Z,27.55
2022-09-01T18:35:27.507Z,27.46
2022-09-01T18:42:35.373Z,27.44
2022-09-01T18:49:27.305Z,27.41
2022-09-01T18:56:38.734Z,27.37
2022-09-01T19:03:49.278Z,27.33
2022-09-01T19:10:54.576Z,27.29
2022-09-01T19:17:59.327Z,27.24
2022-09-01T19:25:01.245Z,27.24
2022-09-01T19:31:58.633Z,27.23
2022-09-01T19:38:54.287Z,27.24
2022-09-01T19:45:50.556Z,27.21
2022-09-01T19:52:50.309Z,27.18
2022-09-01T19:59:58.410Z,27.23
2022-09-01T20:07:02.760Z,27.2
2022-09-01T20:14:19.440Z,27.32
2022-09-01T20:21:24.435Z,27.26
2022-09-01T20:28:32.594Z,27.27
2022-09-01T20:35:32.660Z,27.26
2022-09-01T20:42:45.272Z,27.28
2022-09-01T20:49:36.393Z,27.28
2022-09-01T20:56:39.113Z,27.25
2022-09-01T21:03:33.999Z,27.27
2022-09-01T21:10:44.257Z,27.22
2022-09-01T21:17:41.440Z,27.17
2022-09-01T21:24:42.736Z,27.23
2022-09-01T21:31:52.402Z,27.27
2022-09-01T21:38:46.351Z,27.27
2022-09-01T21:46:02.576Z,27.28
2022-09-01T21:53:13.428Z,27.29
2022-09-01T22:06:06.357Z,27.25
2022-09-01T22:12:39.697Z,27.21
2022-09-01T22:19:06.366Z,27.24
2022-09-01T22:25:45.885Z,27.23
2022-09-01T22:32:14.464Z,27.17
2022-09-01T22:39:04.497Z,27.33
2022-09-01T22:45:39.424Z,27.21
2022-09-01T22:52:12.300Z,27.16
2022-09-01T22:58:53.828Z,27.07
2022-09-01T23:05:25.808Z,27.03
2022-09-01T23:11:56.725Z,27.07
2022-09-01T23:18:22.318Z,27.06
2022-09-01T23:24:50.322Z,27.03
2022-09-01T23:31:25.818Z,26.96
2022-09-01T23:37:59.483Z,26.96
2022-09-01T23:44:26.808Z,26.95
2022-09-01T23:50:52.930Z,26.91
2022-09-01T23:57:19.693Z,26.9
